Crownsville, Maryland
Current Conditions -  °F | °C
As of 2:54 AM on Friday 19 Dec 2014 (Local Time) from KNAK Reporting Station
Overcast Overcast  
Wind Chill: 29°   Ceiling: 11000
Heat Index: 35°   Visibility: 10mi
Dew Point: 23°   Wind: 7mph
Humidity: 61%   Direction: 280°W
Pressure: 30.11"   Gusts: NA
Location:  39.03°N, 76.6°W
Report Text: KNAK 190754Z AUTO 28006KT 10SM SCT038 OVC110 02/M05 A3011 RMK AO2 SLP197 T00171050 $
Loading
Personal Weather Stations






























Interactive Weather Map New forecast layout! Learn more

10-Day Weather Forecast

Advertisements
Track Severe Weather on mobile